Time;durP1;ratioP1;P1;durP2;ratioP2;P2;SDS_P1;SDS_P2;PMS_P1;PMS_P2;Temp;Humidity;BMP_temperature;BMP_pressure;BME280_temperature;BME280_humidity;BME280_pressure;Samples;Min_cycle;Max_cycle;Signal;HPM_P1;HPM_P2
2022/10/02 00:00:13;;;;;;;30.80;21.75;;;;;;;;;;5037691;28;20196;-60
2022/10/02 00:03:17;;;;;;;30.67;21.08;;;;;;;;;;5037250;28;20197;-60
2022/10/02 00:05:48;;;;;;;32.10;21.48;;;;;;;;;;5037623;28;20223;-60
2022/10/02 00:08:19;;;;;;;29.92;20.88;;;;;;;;;;5037392;28;20551;-59
2022/10/02 00:11:20;;;;;;;30.15;20.38;;;;;;;;;;5037423;28;20196;-60
2022/10/02 00:14:00;;;;;;;33.30;20.88;;;;;;;;;;5029181;28;20714;-60
2022/10/02 00:16:37;;;;;;;32.45;21.65;;;;;;;;;;5037187;28;20215;-60
2022/10/02 00:19:05;;;;;;;33.35;21.75;;;;;;;;;;5038497;28;20208;-59
2022/10/02 00:22:00;;;;;;;33.42;21.75;;;;;;;;;;5037973;28;20283;-60
2022/10/02 00:24:37;;;;;;;28.42;20.48;;;;;;;;;;5020594;28;20213;-60
2022/10/02 00:27:14;;;;;;;30.23;20.33;;;;;;;;;;5037858;28;20226;-60
2022/10/02 00:29:52;;;;;;;28.33;19.63;;;;;;;;;;5037823;28;20212;-60
2022/10/02 00:32:37;;;;;;;28.10;19.67;;;;;;;;;;5037642;28;20551;-60
2022/10/02 00:35:30;;;;;;;32.67;20.10;;;;;;;;;;5037872;28;20550;-60
2022/10/02 00:38:18;;;;;;;28.42;19.65;;;;;;;;;;5036823;28;20209;-60
2022/10/02 00:41:10;;;;;;;26.35;19.35;;;;;;;;;;5037476;28;20209;-60
2022/10/02 00:43:53;;;;;;;28.60;19.23;;;;;;;;;;5036687;28;20627;-60
2022/10/02 00:46:31;;;;;;;30.63;19.52;;;;;;;;;;5037324;28;20254;-60
2022/10/02 00:49:19;;;;;;;33.03;21.80;;;;;;;;;;5036510;28;20285;-60
2022/10/02 00:51:55;;;;;;;32.95;22.02;;;;;;;;;;5037312;28;20521;-60
2022/10/02 00:54:59;;;;;;;31.42;21.55;;;;;;;;;;5037432;28;20611;-60
2022/10/02 00:57:46;;;;;;;31.42;21.90;;;;;;;;;;5037312;28;20267;-60
2022/10/02 01:00:15;;;;;;;32.65;21.40;;;;;;;;;;5036539;28;20274;-60
2022/10/02 01:03:01;;;;;;;35.08;21.33;;;;;;;;;;5036210;28;20238;-60
2022/10/02 01:05:28;;;;;;;36.00;22.80;;;;;;;;;;5035898;28;20209;-60
2022/10/02 01:07:56;;;;;;;37.72;23.80;;;;;;;;;;5036906;28;20231;-60
2022/10/02 01:10:24;;;;;;;38.67;24.30;;;;;;;;;;5037096;28;20291;-60
2022/10/02 01:12:53;;;;;;;38.60;24.02;;;;;;;;;;5036583;28;20274;-60
2022/10/02 01:15:22;;;;;;;36.88;23.58;;;;;;;;;;5036977;28;20220;-60
2022/10/02 01:17:50;;;;;;;38.95;24.02;;;;;;;;;;5036085;28;20208;-60
2022/10/02 01:20:36;;;;;;;41.47;24.60;;;;;;;;;;5036573;28;20658;-60
2022/10/02 01:23:27;;;;;;;34.78;22.67;;;;;;;;;;5035754;28;20343;-60
2022/10/02 01:25:55;;;;;;;40.00;23.50;;;;;;;;;;5036735;28;20197;-60
2022/10/02 01:28:22;;;;;;;35.72;23.02;;;;;;;;;;5036347;28;20563;-60
2022/10/02 01:30:55;;;;;;;39.60;23.52;;;;;;;;;;5036637;28;20209;-60
2022/10/02 01:33:22;;;;;;;36.03;22.95;;;;;;;;;;5037003;28;20193;-60
2022/10/02 01:35:50;;;;;;;36.15;22.88;;;;;;;;;;5035662;28;20208;-60
2022/10/02 01:38:18;;;;;;;37.55;23.48;;;;;;;;;;5036465;28;20647;-60
2022/10/02 01:40:45;;;;;;;35.95;24.27;;;;;;;;;;5036502;28;20200;-60
2022/10/02 01:43:17;;;;;;;38.70;24.52;;;;;;;;;;5036332;28;20239;-60
2022/10/02 01:46:16;;;;;;;37.97;24.67;;;;;;;;;;5036193;28;20639;-60
2022/10/02 01:48:52;;;;;;;39.70;24.70;;;;;;;;;;5035723;28;20239;-60
2022/10/02 01:51:35;;;;;;;37.95;24.00;;;;;;;;;;5035295;28;20196;-60
2022/10/02 01:54:16;;;;;;;39.83;23.95;;;;;;;;;;5036507;28;20188;-60
2022/10/02 01:57:22;;;;;;;43.58;25.08;;;;;;;;;;5036263;28;20618;-60
2022/10/02 02:00:09;;;;;;;36.85;22.58;;;;;;;;;;5035023;28;20200;-60
2022/10/02 02:03:12;;;;;;;39.25;22.95;;;;;;;;;;5035156;28;20211;-60
2022/10/02 02:06:08;;;;;;;144.70;29.25;;;;;;;;;;5035967;28;20209;-61
2022/10/02 02:08:35;;;;;;;41.08;23.02;;;;;;;;;;5034948;28;20228;-60
2022/10/02 02:11:12;;;;;;;36.58;21.85;;;;;;;;;;5035748;28;20205;-60
2022/10/02 02:13:45;;;;;;;38.42;23.73;;;;;;;;;;5034884;28;20211;-60
2022/10/02 02:16:24;;;;;;;36.55;23.27;;;;;;;;;;5035611;28;20209;-60
2022/10/02 02:18:59;;;;;;;35.50;22.48;;;;;;;;;;5035660;28;20216;-59
2022/10/02 02:21:31;;;;;;;38.22;21.70;;;;;;;;;;5035884;28;20541;-60
2022/10/02 02:24:01;;;;;;;35.20;21.13;;;;;;;;;;5035670;28;20559;-60
2022/10/02 02:26:29;;;;;;;29.80;20.60;;;;;;;;;;5034472;28;20205;-60
2022/10/02 02:29:00;;;;;;;33.95;21.48;;;;;;;;;;5034371;28;20228;-60
2022/10/02 02:31:36;;;;;;;28.83;18.67;;;;;;;;;;5034820;28;20235;-60
2022/10/02 02:34:10;;;;;;;27.55;17.80;;;;;;;;;;5034923;28;20229;-60
2022/10/02 02:36:40;;;;;;;27.17;17.38;;;;;;;;;;5034370;28;20622;-60
2022/10/02 02:39:14;;;;;;;24.00;15.85;;;;;;;;;;5034596;28;20209;-60
2022/10/02 02:41:47;;;;;;;29.13;17.38;;;;;;;;;;5017717;28;20539;-59
2022/10/02 02:44:37;;;;;;;26.67;17.60;;;;;;;;;;5035083;28;20197;-60
2022/10/02 02:47:23;;;;;;;25.65;15.93;;;;;;;;;;5034241;28;20516;-60
2022/10/02 02:49:56;;;;;;;24.92;15.50;;;;;;;;;;5035230;28;20224;-60
2022/10/02 02:52:27;;;;;;;23.95;15.43;;;;;;;;;;5035484;28;20192;-60
2022/10/02 02:55:01;;;;;;;20.60;13.77;;;;;;;;;;5034385;28;20193;-60
2022/10/02 02:57:34;;;;;;;20.70;13.52;;;;;;;;;;5035334;28;20628;-60
2022/10/02 03:00:01;;;;;;;18.65;12.23;;;;;;;;;;5034170;28;20239;-59
2022/10/02 03:02:28;;;;;;;21.90;13.48;;;;;;;;;;5034790;28;20217;-60
2022/10/02 03:04:55;;;;;;;23.83;13.68;;;;;;;;;;5035118;28;20211;-60
2022/10/02 03:07:22;;;;;;;18.17;12.40;;;;;;;;;;5034951;28;20535;-60
2022/10/02 03:10:16;;;;;;;18.13;12.20;;;;;;;;;;5034624;28;20220;-60
2022/10/02 03:12:57;;;;;;;18.63;11.85;;;;;;;;;;5033889;28;20284;-60
2022/10/02 03:15:42;;;;;;;18.02;11.70;;;;;;;;;;5035088;28;20200;-60
2022/10/02 03:18:38;;;;;;;19.60;12.38;;;;;;;;;;5034191;28;20212;-60
2022/10/02 03:21:16;;;;;;;14.90;10.65;;;;;;;;;;5033980;28;20201;-60
2022/10/02 03:24:05;;;;;;;18.23;10.15;;;;;;;;;;5033793;28;20542;-60
2022/10/02 03:26:38;;;;;;;16.08;10.98;;;;;;;;;;5033942;28;20820;-60
2022/10/02 03:29:17;;;;;;;17.85;11.05;;;;;;;;;;5036825;28;20216;-60
2022/10/02 03:31:45;;;;;;;19.30;11.88;;;;;;;;;;5038381;28;20208;-60
2022/10/02 03:34:12;;;;;;;21.52;11.68;;;;;;;;;;5038037;28;20208;-60
2022/10/02 03:36:39;;;;;;;16.23;11.20;;;;;;;;;;5038001;28;20200;-60
2022/10/02 03:39:06;;;;;;;16.15;11.32;;;;;;;;;;5037942;28;20204;-60
2022/10/02 03:41:53;;;;;;;18.70;11.55;;;;;;;;;;5037953;28;20219;-60
2022/10/02 03:44:20;;;;;;;17.20;11.85;;;;;;;;;;5037831;28;20208;-60
2022/10/02 03:46:47;;;;;;;16.45;11.05;;;;;;;;;;5038646;28;20208;-60
2022/10/02 03:49:14;;;;;;;17.75;11.60;;;;;;;;;;5038783;28;20232;-60
2022/10/02 03:51:41;;;;;;;16.55;11.27;;;;;;;;;;5044797;28;20306;-61
2022/10/02 03:54:15;;;;;;;19.60;12.07;;;;;;;;;;5047320;28;20208;-60
2022/10/02 03:56:49;;;;;;;19.60;10.98;;;;;;;;;;5049463;28;20662;-61
2022/10/02 03:59:36;;;;;;;15.15;10.18;;;;;;;;;;5056266;28;20267;-60
2022/10/02 04:02:08;;;;;;;15.80;9.95;;;;;;;;;;5056059;28;20188;-61
2022/10/02 04:04:44;;;;;;;14.55;9.90;;;;;;;;;;5055730;28;20257;-61
2022/10/02 04:07:18;;;;;;;13.52;9.43;;;;;;;;;;5054892;28;20604;-61
2022/10/02 04:09:51;;;;;;;12.63;9.32;;;;;;;;;;5052938;28;20220;-61
2022/10/02 04:12:24;;;;;;;13.63;10.18;;;;;;;;;;5054735;28;20196;-61
2022/10/02 04:15:15;;;;;;;13.50;9.15;;;;;;;;;;5055461;28;20611;-62
2022/10/02 04:17:47;;;;;;;15.88;9.82;;;;;;;;;;5053929;28;20207;-60
2022/10/02 04:20:43;;;;;;;13.93;9.90;;;;;;;;;;5055644;28;20262;-61
2022/10/02 04:23:13;;;;;;;14.18;9.48;;;;;;;;;;5053812;28;20208;-62
2022/10/02 04:25:45;;;;;;;13.05;9.25;;;;;;;;;;5055424;28;20200;-61
2022/10/02 04:28:14;;;;;;;13.38;10.00;;;;;;;;;;5056202;28;20192;-61
2022/10/02 04:30:41;;;;;;;15.80;10.55;;;;;;;;;;5056469;28;20203;-61
2022/10/02 04:33:14;;;;;;;14.23;10.15;;;;;;;;;;5056223;28;20188;-60
2022/10/02 04:36:00;;;;;;;16.85;10.68;;;;;;;;;;5052344;28;20250;-61
2022/10/02 04:38:40;;;;;;;14.45;10.38;;;;;;;;;;5054168;28;20200;-60
2022/10/02 04:41:45;;;;;;;13.88;10.65;;;;;;;;;;5052356;28;20200;-60
2022/10/02 04:44:12;;;;;;;19.88;12.43;;;;;;;;;;4994543;28;20208;-61
2022/10/02 04:46:58;;;;;;;22.27;12.15;;;;;;;;;;4994532;28;20213;-60
2022/10/02 04:49:35;;;;;;;16.70;11.45;;;;;;;;;;4978505;28;20217;-60
2022/10/02 04:52:08;;;;;;;17.52;11.98;;;;;;;;;;4992082;28;20542;-60
2022/10/02 04:54:35;;;;;;;18.63;11.48;;;;;;;;;;4994461;28;20201;-61
2022/10/02 04:57:15;;;;;;;17.75;11.43;;;;;;;;;;4995246;28;20234;-60
2022/10/02 04:59:48;;;;;;;17.25;11.50;;;;;;;;;;4995855;28;20273;-60
2022/10/02 05:02:24;;;;;;;16.15;10.73;;;;;;;;;;4995809;28;20216;-61
2022/10/02 05:05:19;;;;;;;15.18;10.57;;;;;;;;;;4995781;28;20209;-60
2022/10/02 05:08:07;;;;;;;19.63;12.45;;;;;;;;;;4995799;28;20253;-60
2022/10/02 05:10:58;;;;;;;18.38;12.18;;;;;;;;;;4995605;28;20195;-60
2022/10/02 05:13:35;;;;;;;16.85;11.50;;;;;;;;;;4995830;28;20221;-60
2022/10/02 05:16:26;;;;;;;17.30;11.75;;;;;;;;;;4995998;28;20531;-60
2022/10/02 05:19:05;;;;;;;19.48;13.32;;;;;;;;;;5027609;28;20205;-60
2022/10/02 05:21:59;;;;;;;16.77;12.50;;;;;;;;;;5036745;28;20220;-60
2022/10/02 05:24:45;;;;;;;18.65;14.05;;;;;;;;;;5036732;28;20205;-60
2022/10/02 05:27:46;;;;;;;20.85;13.48;;;;;;;;;;5035809;28;20274;-60
2022/10/02 05:30:15;;;;;;;16.58;12.82;;;;;;;;;;5036682;28;20209;-60
2022/10/02 05:33:10;;;;;;;18.27;13.30;;;;;;;;;;5036716;28;20216;-60
2022/10/02 05:35:46;;;;;;;19.02;13.38;;;;;;;;;;5035718;28;20201;-60
2022/10/02 05:38:23;;;;;;;15.27;12.43;;;;;;;;;;5036686;28;20270;-60
2022/10/02 05:41:03;;;;;;;21.15;13.45;;;;;;;;;;5036791;28;20196;-60
2022/10/02 05:43:52;;;;;;;17.30;12.13;;;;;;;;;;5035540;28;20212;-61
2022/10/02 05:46:22;;;;;;;19.35;12.68;;;;;;;;;;5036467;28;20207;-60
2022/10/02 05:48:57;;;;;;;18.02;12.40;;;;;;;;;;5035183;28;20294;-60
2022/10/02 05:51:30;;;;;;;19.27;13.23;;;;;;;;;;5034779;28;20624;-61
2022/10/02 05:54:06;;;;;;;14.38;11.98;;;;;;;;;;5052495;28;20188;-60
2022/10/02 05:56:37;;;;;;;15.95;12.23;;;;;;;;;;5053441;28;20245;-61
2022/10/02 05:59:23;;;;;;;13.73;11.70;;;;;;;;;;5034585;28;20572;-61
2022/10/02 06:01:50;;;;;;;16.35;11.88;;;;;;;;;;5052335;28;20522;-60
2022/10/02 06:04:27;;;;;;;15.90;11.38;;;;;;;;;;5054466;28;20208;-60
2022/10/02 06:06:56;;;;;;;15.40;11.23;;;;;;;;;;5048736;28;20202;-61
2022/10/02 06:09:26;;;;;;;17.38;11.38;;;;;;;;;;5053565;28;20224;-60
2022/10/02 06:12:02;;;;;;;15.52;10.60;;;;;;;;;;5052414;28;20228;-60
2022/10/02 06:14:35;;;;;;;13.07;11.02;;;;;;;;;;5054201;28;20599;-60
2022/10/02 06:17:14;;;;;;;16.27;11.20;;;;;;;;;;5053901;28;20262;-60
2022/10/02 06:20:02;;;;;;;13.57;11.35;;;;;;;;;;5052384;28;20630;-60
2022/10/02 06:22:55;;;;;;;12.52;10.50;;;;;;;;;;5052507;28;20235;-61
2022/10/02 06:25:27;;;;;;;15.38;10.90;;;;;;;;;;5051034;28;20227;-63
2022/10/02 06:27:58;;;;;;;16.25;10.82;;;;;;;;;;5050196;28;20260;-60
2022/10/02 06:30:28;;;;;;;14.40;11.43;;;;;;;;;;5049910;28;20239;-64
2022/10/02 06:33:00;;;;;;;14.90;11.10;;;;;;;;;;5045209;28;20258;-61
2022/10/02 06:36:04;;;;;;;14.05;11.27;;;;;;;;;;5047812;28;20224;-61
2022/10/02 06:38:50;;;;;;;17.05;10.50;;;;;;;;;;5052119;28;20227;-61
2022/10/02 06:41:24;;;;;;;17.52;11.48;;;;;;;;;;5050013;28;20273;-61
2022/10/02 06:44:15;;;;;;;19.27;10.98;;;;;;;;;;5051225;28;20656;-61
2022/10/02 06:47:01;;;;;;;15.07;10.57;;;;;;;;;;5041142;28;20236;-61
2022/10/02 06:49:40;;;;;;;15.23;10.25;;;;;;;;;;5050783;28;20253;-61
2022/10/02 06:52:23;;;;;;;14.65;10.60;;;;;;;;;;5049599;28;20220;-61
2022/10/02 06:54:50;;;;;;;16.05;9.77;;;;;;;;;;5051436;28;20543;-61
2022/10/02 06:57:32;;;;;;;15.68;10.20;;;;;;;;;;5051400;28;20247;-61
2022/10/02 07:00:16;;;;;;;17.85;10.93;;;;;;;;;;5044943;28;20251;-61
2022/10/02 07:02:47;;;;;;;13.20;10.10;;;;;;;;;;5035376;28;20212;-61
2022/10/02 07:05:29;;;;;;;14.02;10.43;;;;;;;;;;5051052;28;20568;-61
2022/10/02 07:08:15;;;;;;;13.55;9.93;;;;;;;;;;5052060;28;20231;-61
2022/10/02 07:10:56;;;;;;;14.55;10.70;;;;;;;;;;5034925;28;20254;-62
2022/10/02 07:14:08;;;;;;;15.60;10.48;;;;;;;;;;5047185;28;20297;-61
2022/10/02 07:17:04;;;;;;;14.05;10.55;;;;;;;;;;5039721;28;20231;-61
2022/10/02 07:19:36;;;;;;;16.73;11.35;;;;;;;;;;5049226;28;20224;-61
2022/10/02 07:22:06;;;;;;;13.75;10.55;;;;;;;;;;5051961;28;20310;-61
2022/10/02 07:25:09;;;;;;;16.80;11.15;;;;;;;;;;5052071;28;20227;-61
2022/10/02 07:27:50;;;;;;;15.52;10.50;;;;;;;;;;5038599;28;20236;-61
2022/10/02 07:30:18;;;;;;;17.25;10.90;;;;;;;;;;5033516;28;20247;-61
2022/10/02 07:32:52;;;;;;;17.63;10.93;;;;;;;;;;5040850;28;20575;-61
2022/10/02 07:35:38;;;;;;;17.25;11.93;;;;;;;;;;5051197;28;20258;-62
2022/10/02 07:38:44;;;;;;;13.90;11.20;;;;;;;;;;5050702;28;20243;-61
2022/10/02 07:41:32;;;;;;;16.67;11.45;;;;;;;;;;5039415;28;20234;-62
2022/10/02 07:44:14;;;;;;;14.88;10.93;;;;;;;;;;5048866;28;20219;-61
2022/10/02 07:47:04;;;;;;;16.88;11.13;;;;;;;;;;5049551;28;20220;-62
2022/10/02 07:49:50;;;;;;;16.38;10.20;;;;;;;;;;5049927;28;20223;-62
2022/10/02 07:52:38;;;;;;;13.13;9.73;;;;;;;;;;5048980;28;20227;-61
2022/10/02 07:55:18;;;;;;;12.75;9.77;;;;;;;;;;5050829;28;20318;-61
2022/10/02 07:57:57;;;;;;;11.25;9.90;;;;;;;;;;5049857;28;20247;-61
2022/10/02 08:00:25;;;;;;;14.70;9.98;;;;;;;;;;5051356;28;20234;-62
2022/10/02 08:03:07;;;;;;;11.25;9.23;;;;;;;;;;5050864;28;20269;-62
2022/10/02 08:05:41;;;;;;;12.30;9.27;;;;;;;;;;5047041;28;20227;-62
2022/10/02 08:08:33;;;;;;;15.23;10.32;;;;;;;;;;5051523;28;20233;-62
2022/10/02 08:11:08;;;;;;;13.57;10.73;;;;;;;;;;5048886;28;20267;-61
2022/10/02 08:13:46;;;;;;;13.23;9.98;;;;;;;;;;5048990;28;20717;-62
2022/10/02 08:16:15;;;;;;;12.88;10.38;;;;;;;;;;5052997;28;20258;-62
2022/10/02 08:18:54;;;;;;;16.30;11.55;;;;;;;;;;5054308;28;20227;-61
2022/10/02 08:21:23;;;;;;;13.50;12.02;;;;;;;;;;5069030;28;20255;-62
2022/10/02 08:24:08;;;;;;;13.57;11.82;;;;;;;;;;5054495;28;20227;-63
2022/10/02 08:26:41;;;;;;;14.98;11.30;;;;;;;;;;5052103;28;20220;-63
2022/10/02 08:29:18;;;;;;;15.13;11.02;;;;;;;;;;5053171;28;20236;-62
2022/10/02 08:31:45;;;;;;;24.63;13.45;;;;;;;;;;5053347;28;20231;-61
2022/10/02 08:34:17;;;;;;;18.10;10.82;;;;;;;;;;5054299;28;20318;-61
2022/10/02 08:36:58;;;;;;;28.30;11.63;;;;;;;;;;5056749;28;20247;-61
2022/10/02 08:39:53;;;;;;;19.45;11.88;;;;;;;;;;5055733;28;20228;-61
2022/10/02 08:42:28;;;;;;;15.15;9.65;;;;;;;;;;5056308;28;20259;-62
2022/10/02 08:45:17;;;;;;;13.82;9.82;;;;;;;;;;5055484;28;20231;-61
2022/10/02 08:47:56;;;;;;;13.52;9.50;;;;;;;;;;5055656;28;20283;-60
2022/10/02 08:50:42;;;;;;;11.32;9.13;;;;;;;;;;5044380;28;20289;-62
2022/10/02 08:53:09;;;;;;;18.45;9.50;;;;;;;;;;5046934;28;20235;-62
2022/10/02 08:55:46;;;;;;;14.25;10.18;;;;;;;;;;5044236;28;20220;-62
2022/10/02 08:58:28;;;;;;;15.68;12.60;;;;;;;;;;5036735;28;20266;-62
2022/10/02 09:01:10;;;;;;;14.07;9.00;;;;;;;;;;5047792;28;20286;-62
2022/10/02 09:04:07;;;;;;;13.57;8.48;;;;;;;;;;5039123;28;20285;-61
2022/10/02 09:07:09;;;;;;;11.30;7.43;;;;;;;;;;5054248;28;20197;-61
2022/10/02 09:09:44;;;;;;;10.65;6.95;;;;;;;;;;5064748;28;20249;-62
2022/10/02 09:12:19;;;;;;;13.60;10.30;;;;;;;;;;5052974;28;20227;-61
2022/10/02 09:14:50;;;;;;;11.05;7.32;;;;;;;;;;5052440;28;20285;-61
2022/10/02 09:17:42;;;;;;;8.05;7.20;;;;;;;;;;5048259;28;20235;-61
2022/10/02 09:20:15;;;;;;;16.75;10.55;;;;;;;;;;5052431;28;20239;-61
2022/10/02 09:23:01;;;;;;;10.35;7.65;;;;;;;;;;5052656;28;20681;-61
2022/10/02 09:25:31;;;;;;;8.30;6.53;;;;;;;;;;5053647;28;20219;-62
2022/10/02 09:28:20;;;;;;;9.25;7.50;;;;;;;;;;5055180;28;20662;-60
2022/10/02 09:31:11;;;;;;;7.10;6.40;;;;;;;;;;5056135;28;20679;-60
2022/10/02 09:33:49;;;;;;;7.72;6.13;;;;;;;;;;5055038;28;20235;-60
2022/10/02 09:36:27;;;;;;;12.77;7.65;;;;;;;;;;5055949;28;20322;-64
2022/10/02 09:39:01;;;;;;;9.65;5.88;;;;;;;;;;5056811;28;20203;-63
2022/10/02 09:41:58;;;;;;;6.72;5.13;;;;;;;;;;5055351;28;20203;-63
2022/10/02 09:44:46;;;;;;;8.60;5.28;;;;;;;;;;5055171;28;20204;-63
2022/10/02 09:47:13;;;;;;;12.82;7.18;;;;;;;;;;5056194;28;20208;-63
2022/10/02 09:50:02;;;;;;;10.52;6.53;;;;;;;;;;5056073;28;20284;-63
2022/10/02 09:52:44;;;;;;;6.07;4.40;;;;;;;;;;5055236;28;20639;-63
2022/10/02 09:55:48;;;;;;;6.55;4.70;;;;;;;;;;5056273;28;20199;-63
2022/10/02 09:58:47;;;;;;;7.45;4.57;;;;;;;;;;5044072;28;20228;-63
2022/10/02 10:01:37;;;;;;;11.95;6.65;;;;;;;;;;5051621;28;20238;-63
2022/10/02 10:04:21;;;;;;;5.90;4.47;;;;;;;;;;5055879;28;20204;-63
2022/10/02 10:07:17;;;;;;;5.97;4.40;;;;;;;;;;5056130;28;20200;-63
2022/10/02 10:09:50;;;;;;;5.75;4.45;;;;;;;;;;5055388;28;20653;-64
2022/10/02 10:12:33;;;;;;;7.07;3.72;;;;;;;;;;5056020;28;20203;-62
2022/10/02 10:15:21;;;;;;;7.05;3.70;;;;;;;;;;5055898;28;20291;-63
2022/10/02 10:18:15;;;;;;;7.18;3.65;;;;;;;;;;5054871;28;20226;-63
2022/10/02 10:20:53;;;;;;;9.70;4.43;;;;;;;;;;5055863;28;20207;-63
2022/10/02 10:23:34;;;;;;;8.70;5.05;;;;;;;;;;5054837;28;20212;-62
2022/10/02 10:26:16;;;;;;;8.73;4.50;;;;;;;;;;5055451;28;20203;-63
2022/10/02 10:28:43;;;;;;;6.25;4.53;;;;;;;;;;5055532;28;20203;-62
2022/10/02 10:31:28;;;;;;;8.05;4.90;;;;;;;;;;5055425;28;20326;-63
2022/10/02 10:34:30;;;;;;;11.88;5.38;;;;;;;;;;5055449;28;20222;-63
2022/10/02 10:40:08;;;;;;;10.25;5.75;;;;;;;;;;5054742;28;20630;-62
2022/10/02 10:42:35;;;;;;;10.07;5.55;;;;;;;;;;5051878;28;20204;-63
2022/10/02 10:45:48;;;;;;;9.25;5.63;;;;;;;;;;5056134;28;20203;-63
2022/10/02 10:48:33;;;;;;;9.73;5.60;;;;;;;;;;5045235;28;20207;-62
2022/10/02 10:51:13;;;;;;;12.98;5.47;;;;;;;;;;5055186;28;20239;-63
2022/10/02 10:53:51;;;;;;;8.70;4.55;;;;;;;;;;5054945;28;20208;-63
2022/10/02 10:56:35;;;;;;;7.90;4.32;;;;;;;;;;5055192;28;20192;-63
2022/10/02 10:59:21;;;;;;;5.53;3.75;;;;;;;;;;5054279;28;20196;-63
2022/10/02 11:02:13;;;;;;;9.88;3.95;;;;;;;;;;5054431;28;20196;-62
2022/10/02 11:05:07;;;;;;;8.07;4.75;;;;;;;;;;5054234;28;20274;-63
2022/10/02 11:08:05;;;;;;;9.27;5.18;;;;;;;;;;5054780;28;20204;-63
2022/10/02 11:10:46;;;;;;;9.52;4.65;;;;;;;;;;5054856;28;20230;-62
2022/10/02 11:13:42;;;;;;;8.85;4.75;;;;;;;;;;5055562;28;20203;-63
2022/10/02 11:16:24;;;;;;;10.80;5.63;;;;;;;;;;5055164;28;20219;-64
2022/10/02 11:19:07;;;;;;;10.80;5.35;;;;;;;;;;5054835;28;20218;-63
2022/10/02 11:21:50;;;;;;;13.23;5.75;;;;;;;;;;5054910;28;20582;-63
2022/10/02 11:24:26;;;;;;;10.60;5.15;;;;;;;;;;5053989;28;20200;-63
2022/10/02 11:27:11;;;;;;;7.63;4.45;;;;;;;;;;5054624;28;20634;-64
2022/10/02 11:29:47;;;;;;;11.73;5.10;;;;;;;;;;5054754;28;20208;-64
2022/10/02 11:32:36;;;;;;;13.65;5.20;;;;;;;;;;5052240;28;20200;-63
2022/10/02 11:35:20;;;;;;;11.68;4.68;;;;;;;;;;5042959;28;20219;-64
2022/10/02 11:38:08;;;;;;;11.50;4.78;;;;;;;;;;5042359;28;20220;-63
2022/10/02 11:41:07;;;;;;;11.88;5.03;;;;;;;;;;5050881;28;20212;-64
2022/10/02 11:44:04;;;;;;;12.55;6.03;;;;;;;;;;5050669;28;20281;-64
2022/10/02 11:46:56;;;;;;;14.15;5.70;;;;;;;;;;5049342;28;20601;-64
2022/10/02 11:50:17;;;;;;;14.38;5.28;;;;;;;;;;5049774;28;20716;-64
2022/10/02 11:52:51;;;;;;;12.57;5.32;;;;;;;;;;4998480;28;20244;-64
2022/10/02 11:55:30;;;;;;;18.50;5.88;;;;;;;;;;4997000;28;20221;-64
2022/10/02 11:58:05;;;;;;;12.43;5.80;;;;;;;;;;4981363;28;20308;-63
2022/10/02 12:00:58;;;;;;;17.92;5.20;;;;;;;;;;4996187;28;20224;-63
2022/10/02 12:03:52;;;;;;;9.98;4.25;;;;;;;;;;4979351;28;20245;-64
2022/10/02 12:06:50;;;;;;;10.20;4.43;;;;;;;;;;4993042;28;20305;-64
2022/10/02 12:09:36;;;;;;;10.43;5.05;;;;;;;;;;4983488;28;20554;-65
2022/10/02 12:12:15;;;;;;;8.93;4.70;;;;;;;;;;4992703;28;20233;-65
2022/10/02 12:15:07;;;;;;;11.07;4.43;;;;;;;;;;4994268;28;20229;-64
2022/10/02 12:18:00;;;;;;;10.27;5.00;;;;;;;;;;4993440;28;20610;-64
2022/10/02 12:27:14;;;;;;;8.35;4.05;;;;;;;;;;5018559;28;20228;-61
2022/10/02 12:30:10;;;;;;;9.30;4.10;;;;;;;;;;5053280;28;20273;-62
2022/10/02 12:32:55;;;;;;;7.75;3.38;;;;;;;;;;5053979;28;20232;-65
2022/10/02 12:35:41;;;;;;;10.95;3.83;;;;;;;;;;5053937;28;20347;-65
2022/10/02 12:38:26;;;;;;;7.95;3.00;;;;;;;;;;5054819;28;20219;-64
2022/10/02 12:41:08;;;;;;;7.88;2.60;;;;;;;;;;5055978;28;20315;-62
2022/10/02 12:44:24;;;;;;;7.57;2.83;;;;;;;;;;5052606;28;20552;-61
2022/10/02 12:47:12;;;;;;;6.05;2.60;;;;;;;;;;5045478;28;20236;-62
2022/10/02 12:50:02;;;;;;;10.52;3.63;;;;;;;;;;5053269;28;20682;-62
2022/10/02 12:52:55;;;;;;;7.10;3.00;;;;;;;;;;5054540;28;20228;-62
2022/10/02 12:55:41;;;;;;;6.30;2.47;;;;;;;;;;5052487;28;20232;-62
2022/10/02 12:58:30;;;;;;;8.95;2.42;;;;;;;;;;5055415;28;20235;-64
2022/10/02 13:01:15;;;;;;;7.65;2.67;;;;;;;;;;5051289;28;20216;-62
2022/10/02 13:04:00;;;;;;;16.25;2.72;;;;;;;;;;5052502;28;20658;-65
2022/10/02 13:07:14;;;;;;;7.20;2.22;;;;;;;;;;5052968;28;20231;-64
2022/10/02 13:09:44;;;;;;;9.45;2.53;;;;;;;;;;5052496;28;20856;-63
2022/10/02 13:12:36;;;;;;;6.32;2.22;;;;;;;;;;5054118;28;20246;-63
2022/10/02 13:15:18;;;;;;;7.72;3.05;;;;;;;;;;5052418;28;20678;-65
2022/10/02 13:17:57;;;;;;;7.65;2.60;;;;;;;;;;5054079;28;20301;-65
2022/10/02 13:20:37;;;;;;;6.97;2.53;;;;;;;;;;5053766;28;20231;-64
2022/10/02 13:23:34;;;;;;;7.32;2.40;;;;;;;;;;5054223;28;20300;-65
2022/10/02 13:26:20;;;;;;;8.05;2.22;;;;;;;;;;5054203;28;20310;-64
2022/10/02 13:28:55;;;;;;;8.27;2.72;;;;;;;;;;5052664;28;20219;-65
2022/10/02 13:31:53;;;;;;;9.85;2.45;;;;;;;;;;5052048;28;20240;-65
2022/10/02 13:35:08;;;;;;;5.68;1.88;;;;;;;;;;5053244;28;20285;-64
2022/10/02 13:37:45;;;;;;;6.43;2.00;;;;;;;;;;5022305;28;20281;-64
2022/10/02 13:40:26;;;;;;;8.55;2.10;;;;;;;;;;5054223;28;20310;-62
2022/10/02 13:43:14;;;;;;;4.60;1.65;;;;;;;;;;5054905;28;20258;-62
2022/10/02 13:46:09;;;;;;;7.78;2.08;;;;;;;;;;5055670;28;20228;-62
2022/10/02 13:48:58;;;;;;;8.55;2.00;;;;;;;;;;5054869;28;20223;-64
2022/10/02 13:51:54;;;;;;;9.07;2.30;;;;;;;;;;5054432;28;20239;-62
2022/10/02 13:54:48;;;;;;;3.42;1.40;;;;;;;;;;5054452;28;20319;-61
2022/10/02 13:57:30;;;;;;;6.75;1.88;;;;;;;;;;5053055;28;20698;-64
2022/10/02 14:00:26;;;;;;;6.35;1.38;;;;;;;;;;5050780;28;20220;-62
2022/10/02 14:03:08;;;;;;;7.10;1.75;;;;;;;;;;5052138;28;20235;-62
2022/10/02 14:05:48;;;;;;;6.07;1.50;;;;;;;;;;5054972;28;20315;-62
2022/10/02 14:08:47;;;;;;;3.83;1.58;;;;;;;;;;5054520;28;20239;-62
2022/10/02 14:11:35;;;;;;;5.07;2.15;;;;;;;;;;5054216;28;20254;-62
2022/10/02 14:14:17;;;;;;;7.03;1.90;;;;;;;;;;5054896;28;20238;-61
2022/10/02 14:17:12;;;;;;;4.07;1.20;;;;;;;;;;5053719;28;20307;-61
2022/10/02 14:20:07;;;;;;;3.60;1.20;;;;;;;;;;5050916;28;20591;-62
2022/10/02 14:23:03;;;;;;;7.05;2.03;;;;;;;;;;5025834;28;20366;-63
2022/10/02 14:26:07;;;;;;;5.68;1.60;;;;;;;;;;5033821;28;20294;-62
2022/10/02 14:28:43;;;;;;;5.28;1.98;;;;;;;;;;5052159;28;20306;-63
2022/10/02 14:31:31;;;;;;;6.97;1.80;;;;;;;;;;5051499;28;20231;-63
2022/10/02 14:34:52;;;;;;;5.45;1.67;;;;;;;;;;5052496;28;20223;-62
2022/10/02 14:37:54;;;;;;;3.83;1.58;;;;;;;;;;5024884;28;20233;-63
2022/10/02 14:40:30;;;;;;;11.20;2.70;;;;;;;;;;5018491;28;20224;-63
2022/10/02 14:43:06;;;;;;;7.97;2.10;;;;;;;;;;5021232;28;20291;-63
2022/10/02 14:45:58;;;;;;;8.35;2.13;;;;;;;;;;5016974;28;20308;-63
2022/10/02 14:49:03;;;;;;;2.92;1.85;;;;;;;;;;5011457;28;20263;-64
2022/10/02 14:51:50;;;;;;;6.35;2.42;;;;;;;;;;5019181;28;20243;-65
2022/10/02 14:54:17;;;;;;;8.75;2.05;;;;;;;;;;5002943;28;20224;-64
2022/10/02 14:56:50;;;;;;;5.50;2.08;;;;;;;;;;5020665;28;20289;-63
2022/10/02 14:59:26;;;;;;;5.68;1.88;;;;;;;;;;5005923;28;20363;-64
2022/10/02 15:02:00;;;;;;;8.30;2.25;;;;;;;;;;5016630;28;20715;-63
2022/10/02 15:04:33;;;;;;;8.02;1.98;;;;;;;;;;4980692;28;20232;-64
2022/10/02 15:07:11;;;;;;;3.38;1.88;;;;;;;;;;5012603;28;20244;-63
2022/10/02 15:09:48;;;;;;;9.20;2.53;;;;;;;;;;5012337;28;20229;-64
2022/10/02 15:12:23;;;;;;;7.07;2.20;;;;;;;;;;5032677;28;20243;-63
2022/10/02 15:15:29;;;;;;;8.32;2.50;;;;;;;;;;5053011;28;20259;-63
2022/10/02 15:18:19;;;;;;;6.82;2.40;;;;;;;;;;5032806;28;20236;-64
2022/10/02 15:20:50;;;;;;;8.93;3.22;;;;;;;;;;5053758;28;20228;-64
2022/10/02 15:23:35;;;;;;;11.18;3.63;;;;;;;;;;5053312;28;20540;-64
2022/10/02 15:26:35;;;;;;;6.60;2.88;;;;;;;;;;5049465;28;20216;-65
2022/10/02 15:29:32;;;;;;;8.68;2.85;;;;;;;;;;5032627;28;20248;-63
2022/10/02 15:32:23;;;;;;;12.00;4.35;;;;;;;;;;5033771;28;20327;-65
2022/10/02 15:35:08;;;;;;;10.55;3.47;;;;;;;;;;5047814;28;20556;-64
2022/10/02 15:38:14;;;;;;;9.10;3.10;;;;;;;;;;5053623;28;20634;-65
2022/10/02 15:40:44;;;;;;;8.68;3.00;;;;;;;;;;5011481;28;20329;-64
2022/10/02 15:43:15;;;;;;;14.43;3.42;;;;;;;;;;4994834;28;20234;-63
2022/10/02 15:46:09;;;;;;;9.35;2.95;;;;;;;;;;4992947;28;20234;-63
2022/10/02 15:48:48;;;;;;;5.15;2.60;;;;;;;;;;4991833;28;20688;-66
2022/10/02 15:51:43;;;;;;;5.65;2.53;;;;;;;;;;4992497;28;20621;-63
2022/10/02 15:54:50;;;;;;;9.57;3.17;;;;;;;;;;4977028;28;20221;-63
2022/10/02 15:57:44;;;;;;;11.68;2.70;;;;;;;;;;4992205;28;20234;-64
2022/10/02 16:00:21;;;;;;;6.80;2.45;;;;;;;;;;4992680;28;20300;-64
2022/10/02 16:03:09;;;;;;;10.63;3.08;;;;;;;;;;4986560;28;20226;-64